Belmar, NJ

8:12 AM EDT on October 24, 2014 (GMT -0400)
Belmardays.com | Change Station
CLOSE
Current Station
Personal Weather Station
Location: Belmar, NJ
Elevation: 70 ft
Nearby Weather Stations

Elev 70 ft 40.18 °N, 74.01 °W | Updated 7 days ago

Partly Cloudy
Partly Cloudy
50 °F
Feels Like 50 °F
N
14
Wind Variable Wind from NW
Gusts 18 mph

Today
High -- | Low -- °F
--% Chance of Precip.
Yesterday
High -- | Low -- °F
Precip. -- in
7:16 AM 6:03 PM
New Moon, 0% visible
Pressure 29.81 in
Visibility 10.0 miles
Clouds Clear
Dew Point 43 °F
Humidity 72%
Rainfall 0.00 in
Snow Depth Not available.
UV 0 out of 12
Pollen .40 out of 12
Air Quality Not available.
Flu Activity Sporadic
METAR KBLM 241155Z AUTO 31009KT 10SM CLR 10/05 A2981 RMK AO1 70008 10110 20090 52003

More Conditions Fewer Conditions

Pressure 29.81 in
Visibility 10.0 miles
Clouds Clear
Dew Point 43 °F
Humidity 72%
Rainfall 0.00 in
Snow Depth Not available.
UV 0 out of 12
Pollen .40 out of 12
Air Quality Not available.
Flu Activity Sporadic
METAR KBLM 241155Z AUTO 31009KT 10SM CLR 10/05 A2981 RMK AO1 70008 10110 20090 52003

More Conditions Fewer Conditions

10-Day Weather Forecast

Almanac

Astronomy

Oct. 24, 2014 Rise Set
Actual Time 7:16 AM EDT 6:03 PM EDT
Civil Twilight 6:48 AM EDT 6:31 PM EDT
Nautical Twilight 6:16 AM EDT 7:02 PM EDT
Astronomical Twilight 5:45 AM EDT 7:34 PM EDT
Moon 7:52 AM EDT 6:41 PM EDT
Length of Visible Light 11h 42m
Length of Day
10h 47m
Tomorrow will be 2m 28s shorter.
New Moon, 0% of the Moon is Illuminated
Today
New Moon
Oct 30
First Quarter
Nov 6
Full
Nov 14
Last Quarter
Nov 22
New

Today's Extremes

State Highs State Lows

Community

WunderPhotos

Upload Photos

1,764,530 photos uploaded!

Nearby

Snow Depth

Station Depth Elevation
No new snow has been reported.

Earthquake Activity

City Distance Mag. Time & Date
No recent earthquake activity has been reported nearby.
Minimum magnitude displayed is 2.5.

Coastal Water Temperatures

Place Temperature
Sandy Hook, NJ 57.9 °F
Bergen Point West Reach, NJ 61.0 °F
The Battery, NY 62.1 °F

Nearby Weather Stations